sensor_id;sensor_type;location;lat;lon;timestamp;temperature;humidity
8422;DHT22;4248;48.196;10.924;2022-10-20T00:00:41;11.70;73.20
8422;DHT22;4248;48.196;10.924;2022-10-20T00:03:07;11.70;73.00
8422;DHT22;4248;48.196;10.924;2022-10-20T00:05:32;11.70;72.90
8422;DHT22;4248;48.196;10.924;2022-10-20T00:07:58;11.70;72.10
8422;DHT22;4248;48.196;10.924;2022-10-20T00:10:23;11.80;73.20
8422;DHT22;4248;48.196;10.924;2022-10-20T00:12:49;11.70;73.20
8422;DHT22;4248;48.196;10.924;2022-10-20T00:15:14;11.70;73.10
8422;DHT22;4248;48.196;10.924;2022-10-20T00:17:40;11.70;73.30
8422;DHT22;4248;48.196;10.924;2022-10-20T00:20:06;11.70;73.50
8422;DHT22;4248;48.196;10.924;2022-10-20T00:22:31;11.70;73.60
8422;DHT22;4248;48.196;10.924;2022-10-20T00:24:57;11.70;73.50
8422;DHT22;4248;48.196;10.924;2022-10-20T00:27:22;11.70;73.50
8422;DHT22;4248;48.196;10.924;2022-10-20T00:29:48;11.70;73.70
8422;DHT22;4248;48.196;10.924;2022-10-20T00:32:14;11.70;73.80
8422;DHT22;4248;48.196;10.924;2022-10-20T00:34:40;11.70;74.10
8422;DHT22;4248;48.196;10.924;2022-10-20T00:37:05;11.80;73.00
8422;DHT22;4248;48.196;10.924;2022-10-20T00:39:31;11.80;73.90
8422;DHT22;4248;48.196;10.924;2022-10-20T00:41:56;11.80;74.00
8422;DHT22;4248;48.196;10.924;2022-10-20T00:44:58;11.70;74.10
8422;DHT22;4248;48.196;10.924;2022-10-20T00:52:37;11.80;73.90
8422;DHT22;4248;48.196;10.924;2022-10-20T00:55:04;11.80;74.10
8422;DHT22;4248;48.196;10.924;2022-10-20T00:57:30;11.80;73.10
8422;DHT22;4248;48.196;10.924;2022-10-20T00:59:56;11.80;74.20
8422;DHT22;4248;48.196;10.924;2022-10-20T01:02:22;11.70;74.70
8422;DHT22;4248;48.196;10.924;2022-10-20T01:04:48;11.50;75.50
8422;DHT22;4248;48.196;10.924;2022-10-20T01:07:14;11.70;74.50
8422;DHT22;4248;48.196;10.924;2022-10-20T01:09:39;11.60;75.30
8422;DHT22;4248;48.196;10.924;2022-10-20T01:12:17;11.60;75.20
8422;DHT22;4248;48.196;10.924;2022-10-20T01:23:16;11.90;74.10
8422;DHT22;4248;48.196;10.924;2022-10-20T01:26:47;11.90;74.20
8422;DHT22;4248;48.196;10.924;2022-10-20T01:37:52;11.90;74.70
8422;DHT22;4248;48.196;10.924;2022-10-20T01:40:26;11.90;74.70
8422;DHT22;4248;48.196;10.924;2022-10-20T01:42:55;11.90;74.60
8422;DHT22;4248;48.196;10.924;2022-10-20T01:45:24;12.00;74.50
8422;DHT22;4248;48.196;10.924;2022-10-20T01:47:53;11.90;75.80
8422;DHT22;4248;48.196;10.924;2022-10-20T01:50:19;11.80;74.20
8422;DHT22;4248;48.196;10.924;2022-10-20T01:52:46;11.80;75.20
8422;DHT22;4248;48.196;10.924;2022-10-20T01:55:13;11.80;75.30
8422;DHT22;4248;48.196;10.924;2022-10-20T01:57:54;11.70;75.10
8422;DHT22;4248;48.196;10.924;2022-10-20T02:00:23;11.80;76.10
8422;DHT22;4248;48.196;10.924;2022-10-20T02:03:10;11.80;76.20
8422;DHT22;4248;48.196;10.924;2022-10-20T02:08:33;11.80;75.50
8422;DHT22;4248;48.196;10.924;2022-10-20T02:11:02;11.80;76.50
8422;DHT22;4248;48.196;10.924;2022-10-20T02:13:29;11.80;76.40
8422;DHT22;4248;48.196;10.924;2022-10-20T02:15:57;11.80;76.40
8422;DHT22;4248;48.196;10.924;2022-10-20T02:18:30;11.80;76.70
8422;DHT22;4248;48.196;10.924;2022-10-20T02:20:59;11.80;75.70
8422;DHT22;4248;48.196;10.924;2022-10-20T02:23:28;11.80;76.50
8422;DHT22;4248;48.196;10.924;2022-10-20T02:25:55;11.80;76.60
8422;DHT22;4248;48.196;10.924;2022-10-20T02:28:24;11.80;76.60
8422;DHT22;4248;48.196;10.924;2022-10-20T02:30:51;11.80;76.50
8422;DHT22;4248;48.196;10.924;2022-10-20T02:33:17;11.80;76.70
8422;DHT22;4248;48.196;10.924;2022-10-20T02:35:49;11.80;76.80
8422;DHT22;4248;48.196;10.924;2022-10-20T02:38:19;11.80;76.20
8422;DHT22;4248;48.196;10.924;2022-10-20T02:40:44;11.80;77.20
8422;DHT22;4248;48.196;10.924;2022-10-20T02:43:10;11.80;76.00
8422;DHT22;4248;48.196;10.924;2022-10-20T02:45:36;11.90;75.70
8422;DHT22;4248;48.196;10.924;2022-10-20T02:48:01;12.00;75.20
8422;DHT22;4248;48.196;10.924;2022-10-20T02:50:27;12.00;76.00
8422;DHT22;4248;48.196;10.924;2022-10-20T02:52:52;12.10;75.80
8422;DHT22;4248;48.196;10.924;2022-10-20T02:55:18;12.10;75.90
8422;DHT22;4248;48.196;10.924;2022-10-20T02:57:43;12.10;75.00
8422;DHT22;4248;48.196;10.924;2022-10-20T03:00:09;12.10;76.00
8422;DHT22;4248;48.196;10.924;2022-10-20T03:02:35;12.20;75.80
8422;DHT22;4248;48.196;10.924;2022-10-20T03:05:01;12.10;75.80
8422;DHT22;4248;48.196;10.924;2022-10-20T03:07:27;12.20;75.80
8422;DHT22;4248;48.196;10.924;2022-10-20T03:09:52;12.20;75.50
8422;DHT22;4248;48.196;10.924;2022-10-20T03:12:18;12.20;75.70
8422;DHT22;4248;48.196;10.924;2022-10-20T03:14:43;12.20;75.80
8422;DHT22;4248;48.196;10.924;2022-10-20T03:17:09;12.30;74.60
8422;DHT22;4248;48.196;10.924;2022-10-20T03:19:35;12.30;75.60
8422;DHT22;4248;48.196;10.924;2022-10-20T03:22:00;12.30;75.50
8422;DHT22;4248;48.196;10.924;2022-10-20T03:24:26;12.30;75.70
8422;DHT22;4248;48.196;10.924;2022-10-20T03:26:51;12.30;75.90
8422;DHT22;4248;48.196;10.924;2022-10-20T03:29:17;12.30;74.90
8422;DHT22;4248;48.196;10.924;2022-10-20T03:31:43;12.30;76.10
8422;DHT22;4248;48.196;10.924;2022-10-20T03:34:08;12.30;76.20
8422;DHT22;4248;48.196;10.924;2022-10-20T03:36:34;12.30;77.60
8422;DHT22;4248;48.196;10.924;2022-10-20T03:38:59;12.30;75.20
8422;DHT22;4248;48.196;10.924;2022-10-20T03:43:51;12.40;74.60
8422;DHT22;4248;48.196;10.924;2022-10-20T03:46:16;12.50;75.50
8422;DHT22;4248;48.196;10.924;2022-10-20T03:48:42;12.60;74.00
8422;DHT22;4248;48.196;10.924;2022-10-20T03:51:07;12.60;74.80
8422;DHT22;4248;48.196;10.924;2022-10-20T03:53:34;12.70;74.80
8422;DHT22;4248;48.196;10.924;2022-10-20T03:56:14;12.70;74.70
8422;DHT22;4248;48.196;10.924;2022-10-20T03:58:41;12.70;73.50
8422;DHT22;4248;48.196;10.924;2022-10-20T04:01:07;12.70;74.70
8422;DHT22;4248;48.196;10.924;2022-10-20T04:03:33;12.70;74.70
8422;DHT22;4248;48.196;10.924;2022-10-20T04:05:59;12.80;74.70
8422;DHT22;4248;48.196;10.924;2022-10-20T04:08:25;12.70;74.90
8422;DHT22;4248;48.196;10.924;2022-10-20T04:10:50;12.70;75.20
8422;DHT22;4248;48.196;10.924;2022-10-20T04:13:16;12.80;75.00
8422;DHT22;4248;48.196;10.924;2022-10-20T04:15:41;12.90;74.70
8422;DHT22;4248;48.196;10.924;2022-10-20T04:18:07;12.90;73.60
8422;DHT22;4248;48.196;10.924;2022-10-20T04:20:33;12.90;74.60
8422;DHT22;4248;48.196;10.924;2022-10-20T04:22:59;12.80;74.70
8422;DHT22;4248;48.196;10.924;2022-10-20T04:25:24;12.90;75.00
8422;DHT22;4248;48.196;10.924;2022-10-20T04:27:50;12.80;75.20
8422;DHT22;4248;48.196;10.924;2022-10-20T04:30:15;12.80;75.20
8422;DHT22;4248;48.196;10.924;2022-10-20T04:32:41;12.80;75.30
8422;DHT22;4248;48.196;10.924;2022-10-20T04:35:07;12.90;75.30
8422;DHT22;4248;48.196;10.924;2022-10-20T04:37:32;12.90;75.30
8422;DHT22;4248;48.196;10.924;2022-10-20T04:39:58;12.80;75.50
8422;DHT22;4248;48.196;10.924;2022-10-20T04:42:23;12.80;75.80
8422;DHT22;4248;48.196;10.924;2022-10-20T04:44:49;12.80;76.20
8422;DHT22;4248;48.196;10.924;2022-10-20T04:47:15;12.70;75.40
8422;DHT22;4248;48.196;10.924;2022-10-20T04:49:40;12.70;76.40
8422;DHT22;4248;48.196;10.924;2022-10-20T04:52:06;12.70;76.50
8422;DHT22;4248;48.196;10.924;2022-10-20T04:54:32;12.80;76.50
8422;DHT22;4248;48.196;10.924;2022-10-20T04:56:57;12.80;76.70
8422;DHT22;4248;48.196;10.924;2022-10-20T04:59:23;12.80;75.50
8422;DHT22;4248;48.196;10.924;2022-10-20T05:01:48;12.80;76.60
8422;DHT22;4248;48.196;10.924;2022-10-20T05:04:14;12.80;75.60
8422;DHT22;4248;48.196;10.924;2022-10-20T05:06:45;12.80;76.60
8422;DHT22;4248;48.196;10.924;2022-10-20T05:09:11;12.80;75.50
8422;DHT22;4248;48.196;10.924;2022-10-20T05:11:37;12.90;76.30
8422;DHT22;4248;48.196;10.924;2022-10-20T05:14:02;12.90;75.90
8422;DHT22;4248;48.196;10.924;2022-10-20T05:16:28;12.90;76.30
8422;DHT22;4248;48.196;10.924;2022-10-20T05:18:54;12.80;75.80
8422;DHT22;4248;48.196;10.924;2022-10-20T05:21:22;12.70;77.20
8422;DHT22;4248;48.196;10.924;2022-10-20T05:23:53;12.70;77.40
8422;DHT22;4248;48.196;10.924;2022-10-20T05:26:19;12.70;77.60
8422;DHT22;4248;48.196;10.924;2022-10-20T05:28:48;12.70;76.40
8422;DHT22;4248;48.196;10.924;2022-10-20T05:31:15;12.70;77.60
8422;DHT22;4248;48.196;10.924;2022-10-20T05:33:49;12.60;77.60
8422;DHT22;4248;48.196;10.924;2022-10-20T05:36:17;12.70;77.60
8422;DHT22;4248;48.196;10.924;2022-10-20T05:38:44;12.70;76.40
8422;DHT22;4248;48.196;10.924;2022-10-20T05:41:12;12.70;77.30
8422;DHT22;4248;48.196;10.924;2022-10-20T05:43:38;12.70;77.30
8422;DHT22;4248;48.196;10.924;2022-10-20T05:46:05;12.70;77.30
8422;DHT22;4248;48.196;10.924;2022-10-20T05:48:31;12.80;76.10
8422;DHT22;4248;48.196;10.924;2022-10-20T05:51:15;12.80;77.00
8422;DHT22;4248;48.196;10.924;2022-10-20T05:53:42;12.80;76.70
8422;DHT22;4248;48.196;10.924;2022-10-20T05:56:11;12.80;76.60
8422;DHT22;4248;48.196;10.924;2022-10-20T05:58:38;12.80;75.70
8422;DHT22;4248;48.196;10.924;2022-10-20T06:01:09;12.80;76.90
8422;DHT22;4248;48.196;10.924;2022-10-20T06:03:35;12.80;76.90
8422;DHT22;4248;48.196;10.924;2022-10-20T06:06:01;12.70;75.90
8422;DHT22;4248;48.196;10.924;2022-10-20T06:08:31;12.70;77.10
8422;DHT22;4248;48.196;10.924;2022-10-20T06:11:05;12.70;77.20
8422;DHT22;4248;48.196;10.924;2022-10-20T06:13:31;12.70;77.20
8422;DHT22;4248;48.196;10.924;2022-10-20T06:16:01;12.70;77.40
8422;DHT22;4248;48.196;10.924;2022-10-20T06:18:27;12.60;76.40
8422;DHT22;4248;48.196;10.924;2022-10-20T06:21:01;12.60;77.60
8422;DHT22;4248;48.196;10.924;2022-10-20T06:23:27;12.70;77.80
8422;DHT22;4248;48.196;10.924;2022-10-20T06:25:52;12.70;77.60
8422;DHT22;4248;48.196;10.924;2022-10-20T06:28:18;12.70;76.70
8422;DHT22;4248;48.196;10.924;2022-10-20T06:30:44;12.70;77.50
8422;DHT22;4248;48.196;10.924;2022-10-20T06:33:09;12.80;77.20
8422;DHT22;4248;48.196;10.924;2022-10-20T06:35:36;12.80;77.20
8422;DHT22;4248;48.196;10.924;2022-10-20T06:38:02;12.80;77.30
8422;DHT22;4248;48.196;10.924;2022-10-20T06:40:28;12.70;77.30
8422;DHT22;4248;48.196;10.924;2022-10-20T06:42:53;12.60;77.30
8422;DHT22;4248;48.196;10.924;2022-10-20T06:45:19;12.60;76.40
8422;DHT22;4248;48.196;10.924;2022-10-20T06:47:44;12.60;76.60
8422;DHT22;4248;48.196;10.924;2022-10-20T06:50:10;12.60;77.70
8422;DHT22;4248;48.196;10.924;2022-10-20T06:52:35;12.60;77.60
8422;DHT22;4248;48.196;10.924;2022-10-20T06:55:01;12.60;77.50
8422;DHT22;4248;48.196;10.924;2022-10-20T06:57:26;12.60;77.20
8422;DHT22;4248;48.196;10.924;2022-10-20T06:59:51;12.70;76.70
8422;DHT22;4248;48.196;10.924;2022-10-20T07:02:17;12.80;76.40
8422;DHT22;4248;48.196;10.924;2022-10-20T07:04:42;12.90;76.10
8422;DHT22;4248;48.196;10.924;2022-10-20T07:07:08;12.80;75.40
8422;DHT22;4248;48.196;10.924;2022-10-20T07:12:00;12.70;75.40
8422;DHT22;4248;48.196;10.924;2022-10-20T07:14:26;12.70;76.40
8422;DHT22;4248;48.196;10.924;2022-10-20T07:16:51;12.60;76.60
8422;DHT22;4248;48.196;10.924;2022-10-20T07:19:17;12.60;75.70
8422;DHT22;4248;48.196;10.924;2022-10-20T07:21:43;12.50;76.70
8422;DHT22;4248;48.196;10.924;2022-10-20T07:24:09;12.40;77.10
8422;DHT22;4248;48.196;10.924;2022-10-20T07:26:37;12.40;77.20
8422;DHT22;4248;48.196;10.924;2022-10-20T07:29:03;12.40;76.00
8422;DHT22;4248;48.196;10.924;2022-10-20T07:31:30;12.40;77.20
8422;DHT22;4248;48.196;10.924;2022-10-20T07:33:57;12.40;77.00
8422;DHT22;4248;48.196;10.924;2022-10-20T07:36:25;12.40;76.60
8422;DHT22;4248;48.196;10.924;2022-10-20T07:38:53;12.60;75.10
8422;DHT22;4248;48.196;10.924;2022-10-20T07:41:18;12.50;75.80
8422;DHT22;4248;48.196;10.924;2022-10-20T07:43:44;12.60;75.60
8422;DHT22;4248;48.196;10.924;2022-10-20T07:46:11;12.60;75.80
8422;DHT22;4248;48.196;10.924;2022-10-20T07:48:37;12.60;75.70
8422;DHT22;4248;48.196;10.924;2022-10-20T07:53:49;12.80;75.20
8422;DHT22;4248;48.196;10.924;2022-10-20T07:56:15;12.80;74.80
8422;DHT22;4248;48.196;10.924;2022-10-20T07:58:41;12.80;73.90
8422;DHT22;4248;48.196;10.924;2022-10-20T08:01:07;12.90;74.70
8422;DHT22;4248;48.196;10.924;2022-10-20T08:03:33;12.90;74.40
8422;DHT22;4248;48.196;10.924;2022-10-20T08:05:58;13.10;74.30
8422;DHT22;4248;48.196;10.924;2022-10-20T08:08:24;13.30;73.70
8422;DHT22;4248;48.196;10.924;2022-10-20T08:10:50;13.50;72.80
8422;DHT22;4248;48.196;10.924;2022-10-20T08:13:15;13.20;72.70
8422;DHT22;4248;48.196;10.924;2022-10-20T08:15:41;13.40;73.30
8422;DHT22;4248;48.196;10.924;2022-10-20T08:18:06;13.40;72.00
8422;DHT22;4248;48.196;10.924;2022-10-20T08:20:32;13.40;73.50
8422;DHT22;4248;48.196;10.924;2022-10-20T08:22:58;13.40;72.10
8422;DHT22;4248;48.196;10.924;2022-10-20T08:25:24;13.30;73.30
8422;DHT22;4248;48.196;10.924;2022-10-20T08:27:50;14.90;75.30
8422;DHT22;4248;48.196;10.924;2022-10-20T08:32:42;13.00;73.40
8422;DHT22;4248;48.196;10.924;2022-10-20T08:35:08;13.00;74.40
8422;DHT22;4248;48.196;10.924;2022-10-20T08:37:34;13.10;73.00
8422;DHT22;4248;48.196;10.924;2022-10-20T08:40:02;13.10;74.10
8422;DHT22;4248;48.196;10.924;2022-10-20T08:42:28;13.30;74.00
8422;DHT22;4248;48.196;10.924;2022-10-20T08:44:57;13.50;73.10
8422;DHT22;4248;48.196;10.924;2022-10-20T08:47:29;13.60;71.30
8422;DHT22;4248;48.196;10.924;2022-10-20T08:49:55;13.60;72.30
8422;DHT22;4248;48.196;10.924;2022-10-20T08:52:23;13.50;72.40
8422;DHT22;4248;48.196;10.924;2022-10-20T08:54:52;13.50;72.40
8422;DHT22;4248;48.196;10.924;2022-10-20T08:57:27;13.40;71.70
8422;DHT22;4248;48.196;10.924;2022-10-20T08:59:58;13.40;72.70
8422;DHT22;4248;48.196;10.924;2022-10-20T09:02:26;13.40;72.60
8422;DHT22;4248;48.196;10.924;2022-10-20T09:05:00;13.50;72.70
8422;DHT22;4248;48.196;10.924;2022-10-20T09:10:04;13.60;71.30
8422;DHT22;4248;48.196;10.924;2022-10-20T09:12:31;13.70;72.40
8422;DHT22;4248;48.196;10.924;2022-10-20T09:14:57;13.70;72.10
8422;DHT22;4248;48.196;10.924;2022-10-20T09:17:23;13.80;72.00
8422;DHT22;4248;48.196;10.924;2022-10-20T09:19:53;13.90;71.50
8422;DHT22;4248;48.196;10.924;2022-10-20T09:22:19;13.90;71.30
8422;DHT22;4248;48.196;10.924;2022-10-20T09:24:48;14.30;71.10
8422;DHT22;4248;48.196;10.924;2022-10-20T09:29:45;14.00;71.00
8422;DHT22;4248;48.196;10.924;2022-10-20T09:32:32;14.00;71.00
8422;DHT22;4248;48.196;10.924;2022-10-20T09:38:14;14.00;69.40
8422;DHT22;4248;48.196;10.924;2022-10-20T09:41:08;14.00;70.30
8422;DHT22;4248;48.196;10.924;2022-10-20T09:46:20;13.80;70.90
8422;DHT22;4248;48.196;10.924;2022-10-20T09:48:48;13.70;71.30
8422;DHT22;4248;48.196;10.924;2022-10-20T09:51:17;13.70;71.10
8422;DHT22;4248;48.196;10.924;2022-10-20T09:54:03;13.60;71.30
8422;DHT22;4248;48.196;10.924;2022-10-20T09:56:33;13.80;71.10
8422;DHT22;4248;48.196;10.924;2022-10-20T09:59:02;14.00;70.50
8422;DHT22;4248;48.196;10.924;2022-10-20T10:01:29;14.10;69.90
8422;DHT22;4248;48.196;10.924;2022-10-20T10:03:56;14.20;69.20
8422;DHT22;4248;48.196;10.924;2022-10-20T10:06:41;14.30;69.20
8422;DHT22;4248;48.196;10.924;2022-10-20T10:09:27;14.70;67.70
8422;DHT22;4248;48.196;10.924;2022-10-20T10:14:25;14.80;67.90
8422;DHT22;4248;48.196;10.924;2022-10-20T10:16:51;14.80;67.90
8422;DHT22;4248;48.196;10.924;2022-10-20T10:19:19;14.90;66.70
8422;DHT22;4248;48.196;10.924;2022-10-20T10:21:54;14.80;67.00
8422;DHT22;4248;48.196;10.924;2022-10-20T10:27:01;14.50;68.10
8422;DHT22;4248;48.196;10.924;2022-10-20T10:29:29;14.80;66.50
8422;DHT22;4248;48.196;10.924;2022-10-20T10:32:01;14.60;66.40
8422;DHT22;4248;48.196;10.924;2022-10-20T10:37:01;14.80;67.30
8422;DHT22;4248;48.196;10.924;2022-10-20T10:39:28;14.70;66.00
8422;DHT22;4248;48.196;10.924;2022-10-20T10:50:58;15.00;66.40
8422;DHT22;4248;48.196;10.924;2022-10-20T10:56:19;14.80;67.20
8422;DHT22;4248;48.196;10.924;2022-10-20T10:58:57;14.70;67.40
8422;DHT22;4248;48.196;10.924;2022-10-20T11:15:26;15.00;65.80
8422;DHT22;4248;48.196;10.924;2022-10-20T11:21:00;15.00;66.10
8422;DHT22;4248;48.196;10.924;2022-10-20T11:26:35;15.00;65.80
8422;DHT22;4248;48.196;10.924;2022-10-20T11:29:04;15.20;64.00
8422;DHT22;4248;48.196;10.924;2022-10-20T11:31:52;15.30;64.80
8422;DHT22;4248;48.196;10.924;2022-10-20T11:34:52;15.20;64.70
8422;DHT22;4248;48.196;10.924;2022-10-20T11:37:27;14.70;64.90
8422;DHT22;4248;48.196;10.924;2022-10-20T11:40:04;14.70;65.80
8422;DHT22;4248;48.196;10.924;2022-10-20T11:45:50;14.40;66.50
8422;DHT22;4248;48.196;10.924;2022-10-20T11:48:31;14.40;66.40
8422;DHT22;4248;48.196;10.924;2022-10-20T11:56:28;14.20;66.70
8422;DHT22;4248;48.196;10.924;2022-10-20T12:01:54;13.80;67.50
8422;DHT22;4248;48.196;10.924;2022-10-20T12:04:26;13.80;67.40
8422;DHT22;4248;48.196;10.924;2022-10-20T12:14:55;13.60;67.70
8422;DHT22;4248;48.196;10.924;2022-10-20T12:17:34;13.70;66.50
8422;DHT22;4248;48.196;10.924;2022-10-20T12:22:54;13.90;66.40
8422;DHT22;4248;48.196;10.924;2022-10-20T12:31:00;14.00;66.00
8422;DHT22;4248;48.196;10.924;2022-10-20T12:38:45;14.20;65.50
8422;DHT22;4248;48.196;10.924;2022-10-20T12:41:28;14.30;65.40
8422;DHT22;4248;48.196;10.924;2022-10-20T12:43:59;14.00;65.80
8422;DHT22;4248;48.196;10.924;2022-10-20T12:46:28;14.00;66.10
8422;DHT22;4248;48.196;10.924;2022-10-20T12:48:59;14.10;65.10
8422;DHT22;4248;48.196;10.924;2022-10-20T12:51:40;14.10;66.00
8422;DHT22;4248;48.196;10.924;2022-10-20T12:54:34;14.10;66.20
8422;DHT22;4248;48.196;10.924;2022-10-20T12:57:04;14.30;65.50
8422;DHT22;4248;48.196;10.924;2022-10-20T13:04:57;14.40;65.30
8422;DHT22;4248;48.196;10.924;2022-10-20T13:10:37;14.50;64.80
8422;DHT22;4248;48.196;10.924;2022-10-20T13:23:29;15.00;63.50
8422;DHT22;4248;48.196;10.924;2022-10-20T13:25:57;15.00;63.30
8422;DHT22;4248;48.196;10.924;2022-10-20T13:28:28;15.00;63.40
8422;DHT22;4248;48.196;10.924;2022-10-20T13:33:48;15.10;63.20
8422;DHT22;4248;48.196;10.924;2022-10-20T13:36:19;15.10;63.20
8422;DHT22;4248;48.196;10.924;2022-10-20T13:39:19;15.00;63.60
8422;DHT22;4248;48.196;10.924;2022-10-20T13:50:01;14.70;64.80
8422;DHT22;4248;48.196;10.924;2022-10-20T13:52:32;14.70;65.30
8422;DHT22;4248;48.196;10.924;2022-10-20T13:54:59;14.80;65.20
8422;DHT22;4248;48.196;10.924;2022-10-20T13:57:30;15.00;64.70
8422;DHT22;4248;48.196;10.924;2022-10-20T14:00:20;15.00;64.60
8422;DHT22;4248;48.196;10.924;2022-10-20T14:03:02;15.00;64.70
8422;DHT22;4248;48.196;10.924;2022-10-20T14:05:36;14.90;65.20
8422;DHT22;4248;48.196;10.924;2022-10-20T14:08:07;14.90;65.30
8422;DHT22;4248;48.196;10.924;2022-10-20T14:10:43;15.00;64.50
8422;DHT22;4248;48.196;10.924;2022-10-20T14:13:13;15.00;64.70
8422;DHT22;4248;48.196;10.924;2022-10-20T14:15:48;15.00;63.30
8422;DHT22;4248;48.196;10.924;2022-10-20T14:18:34;15.00;64.80
8422;DHT22;4248;48.196;10.924;2022-10-20T14:21:14;14.90;64.90
8422;DHT22;4248;48.196;10.924;2022-10-20T14:23:42;15.10;64.40
8422;DHT22;4248;48.196;10.924;2022-10-20T14:26:20;15.20;64.00
8422;DHT22;4248;48.196;10.924;2022-10-20T14:28:47;15.20;63.80
8422;DHT22;4248;48.196;10.924;2022-10-20T14:31:14;15.10;63.90
8422;DHT22;4248;48.196;10.924;2022-10-20T14:33:47;15.10;64.20
8422;DHT22;4248;48.196;10.924;2022-10-20T14:36:26;15.00;64.10
8422;DHT22;4248;48.196;10.924;2022-10-20T14:38:54;15.10;64.20
8422;DHT22;4248;48.196;10.924;2022-10-20T14:43:51;15.30;63.90
8422;DHT22;4248;48.196;10.924;2022-10-20T14:46:44;15.30;63.80
8422;DHT22;4248;48.196;10.924;2022-10-20T14:49:33;15.20;62.90
8422;DHT22;4248;48.196;10.924;2022-10-20T14:52:05;15.20;64.10
8422;DHT22;4248;48.196;10.924;2022-10-20T14:54:44;15.20;64.40
8422;DHT22;4248;48.196;10.924;2022-10-20T14:59:59;15.10;64.30
8422;DHT22;4248;48.196;10.924;2022-10-20T15:02:37;15.10;64.30
8422;DHT22;4248;48.196;10.924;2022-10-20T15:05:21;15.10;64.60
8422;DHT22;4248;48.196;10.924;2022-10-20T15:07:48;15.10;64.70
8422;DHT22;4248;48.196;10.924;2022-10-20T15:10:15;15.10;64.70
8422;DHT22;4248;48.196;10.924;2022-10-20T15:12:46;15.00;64.80
8422;DHT22;4248;48.196;10.924;2022-10-20T15:17:50;14.90;65.70
8422;DHT22;4248;48.196;10.924;2022-10-20T15:22:58;14.70;66.60
8422;DHT22;4248;48.196;10.924;2022-10-20T15:25:30;14.60;66.60
8422;DHT22;4248;48.196;10.924;2022-10-20T15:27:57;14.60;67.00
8422;DHT22;4248;48.196;10.924;2022-10-20T15:30:24;14.50;67.40
8422;DHT22;4248;48.196;10.924;2022-10-20T15:32:50;14.50;67.60
8422;DHT22;4248;48.196;10.924;2022-10-20T15:35:18;14.60;67.50
8422;DHT22;4248;48.196;10.924;2022-10-20T15:37:49;14.60;66.00
8422;DHT22;4248;48.196;10.924;2022-10-20T15:40:14;14.60;67.00
8422;DHT22;4248;48.196;10.924;2022-10-20T15:42:40;14.60;67.20
8422;DHT22;4248;48.196;10.924;2022-10-20T15:45:21;14.60;67.30
8422;DHT22;4248;48.196;10.924;2022-10-20T15:47:48;14.60;67.40
8422;DHT22;4248;48.196;10.924;2022-10-20T15:50:14;14.50;67.60
8422;DHT22;4248;48.196;10.924;2022-10-20T15:52:40;14.60;67.40
8422;DHT22;4248;48.196;10.924;2022-10-20T15:57:51;14.50;67.60
8422;DHT22;4248;48.196;10.924;2022-10-20T16:00:18;14.40;67.70
8422;DHT22;4248;48.196;10.924;2022-10-20T16:02:45;14.30;68.30
8422;DHT22;4248;48.196;10.924;2022-10-20T16:05:11;14.30;68.40
8422;DHT22;4248;48.196;10.924;2022-10-20T16:07:37;14.30;67.30
8422;DHT22;4248;48.196;10.924;2022-10-20T16:10:07;14.30;68.40
8422;DHT22;4248;48.196;10.924;2022-10-20T16:12:32;14.30;68.40
8422;DHT22;4248;48.196;10.924;2022-10-20T16:14:58;14.30;68.40
8422;DHT22;4248;48.196;10.924;2022-10-20T16:17:24;14.30;67.30
8422;DHT22;4248;48.196;10.924;2022-10-20T16:19:49;14.30;68.50
8422;DHT22;4248;48.196;10.924;2022-10-20T16:22:15;14.30;68.40
8422;DHT22;4248;48.196;10.924;2022-10-20T16:24:40;14.20;68.50
8422;DHT22;4248;48.196;10.924;2022-10-20T16:27:06;14.10;68.90
8422;DHT22;4248;48.196;10.924;2022-10-20T16:29:32;14.10;68.10
8422;DHT22;4248;48.196;10.924;2022-10-20T16:31:58;14.10;69.10
8422;DHT22;4248;48.196;10.924;2022-10-20T16:34:26;14.20;68.80
8422;DHT22;4248;48.196;10.924;2022-10-20T16:36:51;14.20;68.30
8422;DHT22;4248;48.196;10.924;2022-10-20T16:39:17;14.30;67.40
8422;DHT22;4248;48.196;10.924;2022-10-20T16:41:44;14.30;67.40
8422;DHT22;4248;48.196;10.924;2022-10-20T16:44:10;14.30;68.40
8422;DHT22;4248;48.196;10.924;2022-10-20T16:46:36;14.30;68.40
8422;DHT22;4248;48.196;10.924;2022-10-20T16:49:02;14.30;67.30
8422;DHT22;4248;48.196;10.924;2022-10-20T16:51:27;14.30;68.40
8422;DHT22;4248;48.196;10.924;2022-10-20T16:53:53;14.30;68.50
8422;DHT22;4248;48.196;10.924;2022-10-20T16:56:19;14.20;68.40
8422;DHT22;4248;48.196;10.924;2022-10-20T16:58:45;14.10;67.90
8422;DHT22;4248;48.196;10.924;2022-10-20T17:01:11;14.20;69.20
8422;DHT22;4248;48.196;10.924;2022-10-20T17:03:44;14.20;69.10
8422;DHT22;4248;48.196;10.924;2022-10-20T17:06:11;14.20;68.50
8422;DHT22;4248;48.196;10.924;2022-10-20T17:08:37;14.30;67.30
8422;DHT22;4248;48.196;10.924;2022-10-20T17:11:05;14.30;68.50
8422;DHT22;4248;48.196;10.924;2022-10-20T17:13:31;14.20;68.30
8422;DHT22;4248;48.196;10.924;2022-10-20T17:16:03;14.20;68.30
8422;DHT22;4248;48.196;10.924;2022-10-20T17:18:29;14.10;68.00
8422;DHT22;4248;48.196;10.924;2022-10-20T17:20:54;14.10;69.10
8422;DHT22;4248;48.196;10.924;2022-10-20T17:23:21;14.10;68.00
8422;DHT22;4248;48.196;10.924;2022-10-20T17:25:47;14.10;69.30
8422;DHT22;4248;48.196;10.924;2022-10-20T17:28:13;14.00;69.40
8422;DHT22;4248;48.196;10.924;2022-10-20T17:30:43;14.00;69.70
8422;DHT22;4248;48.196;10.924;2022-10-20T17:33:09;14.00;69.70
8422;DHT22;4248;48.196;10.924;2022-10-20T17:35:35;13.90;70.00
8422;DHT22;4248;48.196;10.924;2022-10-20T17:38:01;13.90;70.40
8422;DHT22;4248;48.196;10.924;2022-10-20T17:40:27;13.90;70.50
8422;DHT22;4248;48.196;10.924;2022-10-20T17:42:52;13.80;70.60
8422;DHT22;4248;48.196;10.924;2022-10-20T17:45:18;13.80;70.60
8422;DHT22;4248;48.196;10.924;2022-10-20T17:47:43;13.80;70.70
8422;DHT22;4248;48.196;10.924;2022-10-20T17:50:09;13.80;70.70
8422;DHT22;4248;48.196;10.924;2022-10-20T17:52:35;13.80;70.50
8422;DHT22;4248;48.196;10.924;2022-10-20T17:57:31;13.70;69.50
8422;DHT22;4248;48.196;10.924;2022-10-20T17:59:56;15.40;72.10
8422;DHT22;4248;48.196;10.924;2022-10-20T18:02:22;13.60;70.20
8422;DHT22;4248;48.196;10.924;2022-10-20T18:04:50;13.60;70.10
8422;DHT22;4248;48.196;10.924;2022-10-20T18:07:16;13.60;69.40
8422;DHT22;4248;48.196;10.924;2022-10-20T18:09:42;13.60;70.40
8422;DHT22;4248;48.196;10.924;2022-10-20T18:12:08;13.50;70.50
8422;DHT22;4248;48.196;10.924;2022-10-20T18:14:34;13.50;70.70
8422;DHT22;4248;48.196;10.924;2022-10-20T18:16:59;13.30;70.60
8422;DHT22;4248;48.196;10.924;2022-10-20T18:19:25;13.40;69.90
8422;DHT22;4248;48.196;10.924;2022-10-20T18:21:50;13.40;71.10
8422;DHT22;4248;48.196;10.924;2022-10-20T18:24:17;13.40;71.10
8422;DHT22;4248;48.196;10.924;2022-10-20T18:26:43;13.30;70.90
8422;DHT22;4248;48.196;10.924;2022-10-20T18:29:10;13.30;69.80
8422;DHT22;4248;48.196;10.924;2022-10-20T18:31:38;13.40;69.80
8422;DHT22;4248;48.196;10.924;2022-10-20T18:34:06;13.30;70.70
8422;DHT22;4248;48.196;10.924;2022-10-20T18:36:33;13.20;71.10
8422;DHT22;4248;48.196;10.924;2022-10-20T18:38:59;13.10;70.70